STA305 VNLK-VNPL
Flight info
| Callsign | STA305 |
|---|---|
| Flight time | 0h 5m |
| Altitude | 17000 |
| Route | NO ROUTE |
| Aircraft | C208/L-SDFGR/C |
Departure
| Time | 2026-04-29 16:21 |
|---|---|
| Airport | Tenzing-Hillary Airport (VNLK) |
Arrival
| Time | 2026-04-29 16:27 |
|---|---|
| Airport | Phaplu Airport (VNPL) |
| Time | Latitude | Longitude | Altitude | Speed | Heading |
|---|---|---|---|---|---|
| 2026-04-29 16:15 | 27.68726 | 86.73161 | 9364 ft | 0 kts | 59° |
| 2026-04-29 16:17 | 27.68726 | 86.73160 | 9364 ft | 0 kts | 59° |
| 2026-04-29 16:18 | 27.68738 | 86.73171 | 9362 ft | 0 kts | 357° |
| 2026-04-29 16:18 | 27.68760 | 86.73163 | 9362 ft | 3 kts | 330° |
| 2026-04-29 16:19 | 27.68774 | 86.73163 | 9365 ft | 4 kts | 46° |
| 2026-04-29 16:19 | 27.68791 | 86.73178 | 9368 ft | 7 kts | 337° |
| 2026-04-29 16:19 | 27.68794 | 86.73162 | 9366 ft | 1 kts | 225° |
| 2026-04-29 16:19 | 27.68784 | 86.73158 | 9365 ft | 3 kts | 202° |
| 2026-04-29 16:20 | 27.68777 | 86.73148 | 9363 ft | 0 kts | 239° |
| 2026-04-29 16:20 | 27.68739 | 86.73075 | 9329 ft | 48 kts | 240° |
| 2026-04-29 16:20 | 27.68447 | 86.72522 | 9296 ft | 95 kts | 238° |
| 2026-04-29 16:20 | 27.68037 | 86.71814 | 9473 ft | 116 kts | 235° |
| 2026-04-29 16:21 | 27.67437 | 86.71125 | 9697 ft | 134 kts | 216° |
| 2026-04-29 16:21 | 27.66585 | 86.70602 | 9911 ft | 144 kts | 203° |
| 2026-04-29 16:21 | 27.65614 | 86.70192 | 10052 ft | 158 kts | 201° |
| 2026-04-29 16:21 | 27.64543 | 86.69799 | 10143 ft | 167 kts | 196° |
| 2026-04-29 16:22 | 27.63367 | 86.69531 | 10047 ft | 180 kts | 188° |
| 2026-04-29 16:22 | 27.62140 | 86.69257 | 10128 ft | 178 kts | 202° |
| 2026-04-29 16:22 | 27.61163 | 86.68445 | 10207 ft | 176 kts | 233° |
| 2026-04-29 16:22 | 27.60654 | 86.67240 | 10352 ft | 173 kts | 255° |
| 2026-04-29 16:23 | 27.60371 | 86.65922 | 10472 ft | 171 kts | 255° |
| 2026-04-29 16:23 | 27.59993 | 86.64652 | 10620 ft | 169 kts | 249° |
| 2026-04-29 16:23 | 27.59550 | 86.63455 | 10849 ft | 165 kts | 248° |
| 2026-04-29 16:23 | 27.59092 | 86.62257 | 10992 ft | 167 kts | 247° |
| 2026-04-29 16:24 | 27.58579 | 86.61070 | 10987 ft | 176 kts | 243° |
| 2026-04-29 16:24 | 27.57942 | 86.59964 | 10534 ft | 147 kts | 234° |
| 2026-04-29 16:24 | 27.57256 | 86.59313 | 10168 ft | 108 kts | 208° |
| 2026-04-29 16:24 | 27.56614 | 86.58994 | 9766 ft | 106 kts | 206° |
| 2026-04-29 16:25 | 27.55973 | 86.58627 | 9531 ft | 101 kts | 209° |
| 2026-04-29 16:25 | 27.55366 | 86.58301 | 9260 ft | 92 kts | 198° |
| 2026-04-29 16:25 | 27.54730 | 86.58314 | 9064 ft | 95 kts | 163° |
| 2026-04-29 16:25 | 27.54350 | 86.58570 | 8915 ft | 99 kts | 139° |
| 2026-04-29 16:26 | 27.53572 | 86.59056 | 8603 ft | 99 kts | 171° |
| 2026-04-29 16:26 | 27.52931 | 86.59045 | 8423 ft | 90 kts | 202° |
| 2026-04-29 16:26 | 27.52533 | 86.58853 | 8251 ft | 95 kts | 204° |
| 2026-04-29 16:26 | 27.51752 | 86.58486 | 8085 ft | 73 kts | 201° |
| 2026-04-29 16:27 | 27.51576 | 86.58408 | 8104 ft | 15 kts | 197° |
| 2026-04-29 16:27 | 27.51529 | 86.58392 | 8111 ft | 4 kts | 288° |
| 2026-04-29 16:27 | 27.51578 | 86.58409 | 8104 ft | 13 kts | 26° |
| 2026-04-29 16:27 | 27.51634 | 86.58457 | 8097 ft | 7 kts | 89° |
| 2026-04-29 16:28 | 27.51660 | 86.58475 | 8098 ft | 9 kts | 15° |
| 2026-04-29 16:28 | 27.51679 | 86.58488 | 8098 ft | 2 kts | 84° |
| 2026-04-29 16:28 | 27.51669 | 86.58498 | 8098 ft | 0 kts | 177° |
| 2026-04-29 16:28 | 27.51662 | 86.58494 | 8095 ft | 2 kts | 231° |
| 2026-04-29 16:29 | 27.51655 | 86.58483 | 8096 ft | 0 kts | 205° |